sensor_id;sensor_type;location;lat;lon;timestamp;temperature;humidity
54168;DHT22;40072;50.958;3.592;2023-02-03T00:01:08;9.50;99.90
54168;DHT22;40072;50.958;3.592;2023-02-03T00:03:33;9.50;99.90
54168;DHT22;40072;50.958;3.592;2023-02-03T00:06:01;9.50;99.90
54168;DHT22;40072;50.958;3.592;2023-02-03T00:08:27;9.50;99.90
54168;DHT22;40072;50.958;3.592;2023-02-03T00:10:53;9.50;99.90
54168;DHT22;40072;50.958;3.592;2023-02-03T00:13:19;9.50;99.90
54168;DHT22;40072;50.958;3.592;2023-02-03T00:15:45;9.60;99.90
54168;DHT22;40072;50.958;3.592;2023-02-03T00:18:11;9.60;99.90
54168;DHT22;40072;50.958;3.592;2023-02-03T00:20:36;9.60;99.90
54168;DHT22;40072;50.958;3.592;2023-02-03T00:23:07;9.60;99.90
54168;DHT22;40072;50.958;3.592;2023-02-03T00:25:33;9.60;99.90
54168;DHT22;40072;50.958;3.592;2023-02-03T00:27:59;9.60;99.90
54168;DHT22;40072;50.958;3.592;2023-02-03T00:30:25;9.60;99.90
54168;DHT22;40072;50.958;3.592;2023-02-03T00:32:51;9.60;99.90
54168;DHT22;40072;50.958;3.592;2023-02-03T00:35:16;9.60;99.90
54168;DHT22;40072;50.958;3.592;2023-02-03T00:37:42;9.60;99.90
54168;DHT22;40072;50.958;3.592;2023-02-03T00:40:08;9.70;99.90
54168;DHT22;40072;50.958;3.592;2023-02-03T00:42:34;9.60;99.90
54168;DHT22;40072;50.958;3.592;2023-02-03T00:45:01;9.70;99.90
54168;DHT22;40072;50.958;3.592;2023-02-03T00:47:26;9.70;99.90
54168;DHT22;40072;50.958;3.592;2023-02-03T00:49:52;9.70;99.90
54168;DHT22;40072;50.958;3.592;2023-02-03T00:52:18;9.80;99.90
54168;DHT22;40072;50.958;3.592;2023-02-03T00:54:43;9.80;99.90
54168;DHT22;40072;50.958;3.592;2023-02-03T00:57:09;9.90;99.90
54168;DHT22;40072;50.958;3.592;2023-02-03T00:59:34;9.80;99.90
54168;DHT22;40072;50.958;3.592;2023-02-03T01:02:00;9.80;99.90
54168;DHT22;40072;50.958;3.592;2023-02-03T01:04:26;9.80;99.90
54168;DHT22;40072;50.958;3.592;2023-02-03T01:06:51;9.80;99.90
54168;DHT22;40072;50.958;3.592;2023-02-03T01:09:22;9.80;99.90
54168;DHT22;40072;50.958;3.592;2023-02-03T01:11:47;9.80;99.90
54168;DHT22;40072;50.958;3.592;2023-02-03T01:14:13;9.70;99.90
54168;DHT22;40072;50.958;3.592;2023-02-03T01:16:39;9.70;99.90
54168;DHT22;40072;50.958;3.592;2023-02-03T01:19:05;9.70;99.90
54168;DHT22;40072;50.958;3.592;2023-02-03T01:21:31;9.80;99.90
54168;DHT22;40072;50.958;3.592;2023-02-03T01:23:57;9.80;99.90
54168;DHT22;40072;50.958;3.592;2023-02-03T01:26:23;9.80;99.90
54168;DHT22;40072;50.958;3.592;2023-02-03T01:28:57;9.80;99.90
54168;DHT22;40072;50.958;3.592;2023-02-03T01:31:38;9.70;99.90
54168;DHT22;40072;50.958;3.592;2023-02-03T01:34:05;9.60;99.90
54168;DHT22;40072;50.958;3.592;2023-02-03T01:36:33;9.60;99.90
54168;DHT22;40072;50.958;3.592;2023-02-03T01:38:59;9.60;99.90
54168;DHT22;40072;50.958;3.592;2023-02-03T01:41:29;9.70;99.90
54168;DHT22;40072;50.958;3.592;2023-02-03T01:43:56;9.70;99.90
54168;DHT22;40072;50.958;3.592;2023-02-03T01:46:45;9.70;99.90
54168;DHT22;40072;50.958;3.592;2023-02-03T01:49:23;9.70;99.90
54168;DHT22;40072;50.958;3.592;2023-02-03T01:51:51;9.70;99.90
54168;DHT22;40072;50.958;3.592;2023-02-03T01:54:41;9.70;99.90
54168;DHT22;40072;50.958;3.592;2023-02-03T01:57:30;9.70;99.90
54168;DHT22;40072;50.958;3.592;2023-02-03T01:59:58;9.80;99.90
54168;DHT22;40072;50.958;3.592;2023-02-03T02:02:25;9.80;99.90
54168;DHT22;40072;50.958;3.592;2023-02-03T02:04:55;9.80;99.90
54168;DHT22;40072;50.958;3.592;2023-02-03T02:07:23;9.70;99.90
54168;DHT22;40072;50.958;3.592;2023-02-03T02:09:50;9.70;99.90
54168;DHT22;40072;50.958;3.592;2023-02-03T02:12:15;9.70;99.90
54168;DHT22;40072;50.958;3.592;2023-02-03T02:14:42;9.70;99.90
54168;DHT22;40072;50.958;3.592;2023-02-03T02:17:39;9.70;99.90
54168;DHT22;40072;50.958;3.592;2023-02-03T02:21:10;9.80;99.90
54168;DHT22;40072;50.958;3.592;2023-02-03T02:34:52;9.60;99.90
54168;DHT22;40072;50.958;3.592;2023-02-03T02:37:26;9.70;99.90
54168;DHT22;40072;50.958;3.592;2023-02-03T02:42:33;9.60;99.90
54168;DHT22;40072;50.958;3.592;2023-02-03T02:48:08;9.70;99.90
54168;DHT22;40072;50.958;3.592;2023-02-03T02:50:40;9.60;99.90
54168;DHT22;40072;50.958;3.592;2023-02-03T02:53:09;9.60;99.90
54168;DHT22;40072;50.958;3.592;2023-02-03T02:55:37;9.50;99.90
54168;DHT22;40072;50.958;3.592;2023-02-03T02:58:07;9.60;99.90
54168;DHT22;40072;50.958;3.592;2023-02-03T03:00:35;9.70;99.90
54168;DHT22;40072;50.958;3.592;2023-02-03T03:03:19;9.70;99.90
54168;DHT22;40072;50.958;3.592;2023-02-03T03:05:55;9.60;99.90
54168;DHT22;40072;50.958;3.592;2023-02-03T03:08:37;9.70;99.90
54168;DHT22;40072;50.958;3.592;2023-02-03T03:11:04;9.70;99.90
54168;DHT22;40072;50.958;3.592;2023-02-03T03:13:33;9.80;99.90
54168;DHT22;40072;50.958;3.592;2023-02-03T03:16:01;9.80;99.90
54168;DHT22;40072;50.958;3.592;2023-02-03T03:18:53;9.80;99.90
54168;DHT22;40072;50.958;3.592;2023-02-03T03:21:27;9.70;99.90
54168;DHT22;40072;50.958;3.592;2023-02-03T03:23:58;9.70;99.90
54168;DHT22;40072;50.958;3.592;2023-02-03T03:26:38;9.60;99.90
54168;DHT22;40072;50.958;3.592;2023-02-03T03:29:25;9.70;99.90
54168;DHT22;40072;50.958;3.592;2023-02-03T03:31:53;9.70;99.90
54168;DHT22;40072;50.958;3.592;2023-02-03T03:34:19;9.70;99.90
54168;DHT22;40072;50.958;3.592;2023-02-03T03:42:08;9.80;99.90
54168;DHT22;40072;50.958;3.592;2023-02-03T03:44:50;9.80;99.90
54168;DHT22;40072;50.958;3.592;2023-02-03T03:47:31;9.80;99.90
54168;DHT22;40072;50.958;3.592;2023-02-03T03:50:00;9.80;99.90
54168;DHT22;40072;50.958;3.592;2023-02-03T03:52:30;9.80;99.90
54168;DHT22;40072;50.958;3.592;2023-02-03T03:54:58;9.80;99.90
54168;DHT22;40072;50.958;3.592;2023-02-03T03:57:29;9.80;99.90
54168;DHT22;40072;50.958;3.592;2023-02-03T03:59:57;9.90;99.90
54168;DHT22;40072;50.958;3.592;2023-02-03T04:02:23;9.80;99.90
54168;DHT22;40072;50.958;3.592;2023-02-03T04:04:49;9.80;99.90
54168;DHT22;40072;50.958;3.592;2023-02-03T04:07:16;9.80;99.90
54168;DHT22;40072;50.958;3.592;2023-02-03T04:09:42;9.90;99.90
54168;DHT22;40072;50.958;3.592;2023-02-03T04:12:18;9.90;99.90
54168;DHT22;40072;50.958;3.592;2023-02-03T04:14:46;9.80;99.90
54168;DHT22;40072;50.958;3.592;2023-02-03T04:17:11;9.80;99.90
54168;DHT22;40072;50.958;3.592;2023-02-03T04:19:37;9.80;99.90
54168;DHT22;40072;50.958;3.592;2023-02-03T04:22:02;9.80;99.90
54168;DHT22;40072;50.958;3.592;2023-02-03T04:24:28;9.70;99.90
54168;DHT22;40072;50.958;3.592;2023-02-03T04:26:54;9.70;99.90
54168;DHT22;40072;50.958;3.592;2023-02-03T04:29:19;9.70;99.90
54168;DHT22;40072;50.958;3.592;2023-02-03T04:31:45;9.70;99.90
54168;DHT22;40072;50.958;3.592;2023-02-03T04:34:11;9.70;99.90
54168;DHT22;40072;50.958;3.592;2023-02-03T04:36:36;9.70;99.90
54168;DHT22;40072;50.958;3.592;2023-02-03T04:39:02;9.70;99.90
54168;DHT22;40072;50.958;3.592;2023-02-03T04:41:28;9.70;99.90
54168;DHT22;40072;50.958;3.592;2023-02-03T04:43:53;9.70;99.90
54168;DHT22;40072;50.958;3.592;2023-02-03T04:46:19;9.70;99.90
54168;DHT22;40072;50.958;3.592;2023-02-03T04:48:45;9.80;99.90
54168;DHT22;40072;50.958;3.592;2023-02-03T04:51:10;9.80;99.90
54168;DHT22;40072;50.958;3.592;2023-02-03T04:53:36;9.70;99.90
54168;DHT22;40072;50.958;3.592;2023-02-03T04:56:02;9.80;99.90
54168;DHT22;40072;50.958;3.592;2023-02-03T04:58:28;9.80;99.90
54168;DHT22;40072;50.958;3.592;2023-02-03T05:00:54;9.70;99.90
54168;DHT22;40072;50.958;3.592;2023-02-03T05:03:19;9.80;99.90
54168;DHT22;40072;50.958;3.592;2023-02-03T05:05:45;9.80;99.90
54168;DHT22;40072;50.958;3.592;2023-02-03T05:08:11;9.80;99.90
54168;DHT22;40072;50.958;3.592;2023-02-03T05:10:36;9.80;99.90
54168;DHT22;40072;50.958;3.592;2023-02-03T05:13:02;9.80;99.90
54168;DHT22;40072;50.958;3.592;2023-02-03T05:15:28;9.80;99.90
54168;DHT22;40072;50.958;3.592;2023-02-03T05:17:54;9.70;99.90
54168;DHT22;40072;50.958;3.592;2023-02-03T05:20:20;9.70;99.90
54168;DHT22;40072;50.958;3.592;2023-02-03T05:22:46;9.70;99.90
54168;DHT22;40072;50.958;3.592;2023-02-03T05:25:12;9.80;99.90
54168;DHT22;40072;50.958;3.592;2023-02-03T05:27:39;9.80;99.90
54168;DHT22;40072;50.958;3.592;2023-02-03T05:30:06;9.80;99.90
54168;DHT22;40072;50.958;3.592;2023-02-03T05:32:32;9.80;99.90
54168;DHT22;40072;50.958;3.592;2023-02-03T05:34:58;9.80;99.90
54168;DHT22;40072;50.958;3.592;2023-02-03T05:37:23;9.80;99.90
54168;DHT22;40072;50.958;3.592;2023-02-03T05:39:49;9.80;99.90
54168;DHT22;40072;50.958;3.592;2023-02-03T05:42:15;9.80;99.90
54168;DHT22;40072;50.958;3.592;2023-02-03T05:44:40;9.90;99.90
54168;DHT22;40072;50.958;3.592;2023-02-03T05:47:06;9.90;99.90
54168;DHT22;40072;50.958;3.592;2023-02-03T05:49:32;9.80;99.90
54168;DHT22;40072;50.958;3.592;2023-02-03T05:51:57;9.80;99.90
54168;DHT22;40072;50.958;3.592;2023-02-03T05:54:23;9.80;99.90
54168;DHT22;40072;50.958;3.592;2023-02-03T05:56:49;9.80;99.90
54168;DHT22;40072;50.958;3.592;2023-02-03T05:59:15;9.80;99.90
54168;DHT22;40072;50.958;3.592;2023-02-03T06:01:40;9.90;99.90
54168;DHT22;40072;50.958;3.592;2023-02-03T06:04:06;9.80;99.90
54168;DHT22;40072;50.958;3.592;2023-02-03T06:06:32;9.80;99.90
54168;DHT22;40072;50.958;3.592;2023-02-03T06:09:06;9.80;99.90
54168;DHT22;40072;50.958;3.592;2023-02-03T06:11:32;9.80;99.90
54168;DHT22;40072;50.958;3.592;2023-02-03T06:13:58;9.80;99.90
54168;DHT22;40072;50.958;3.592;2023-02-03T06:16:25;9.80;99.90
54168;DHT22;40072;50.958;3.592;2023-02-03T06:18:52;9.80;99.90
54168;DHT22;40072;50.958;3.592;2023-02-03T06:21:19;9.80;99.90
54168;DHT22;40072;50.958;3.592;2023-02-03T06:23:45;9.80;99.90
54168;DHT22;40072;50.958;3.592;2023-02-03T06:26:11;9.80;99.90
54168;DHT22;40072;50.958;3.592;2023-02-03T06:28:36;9.80;99.90
54168;DHT22;40072;50.958;3.592;2023-02-03T06:31:03;9.80;99.90
54168;DHT22;40072;50.958;3.592;2023-02-03T06:33:30;9.70;99.90
54168;DHT22;40072;50.958;3.592;2023-02-03T06:35:55;9.70;99.90
54168;DHT22;40072;50.958;3.592;2023-02-03T06:38:21;9.70;99.90
54168;DHT22;40072;50.958;3.592;2023-02-03T06:40:47;9.80;99.90
54168;DHT22;40072;50.958;3.592;2023-02-03T06:43:14;9.80;99.90
54168;DHT22;40072;50.958;3.592;2023-02-03T06:45:40;9.70;99.90
54168;DHT22;40072;50.958;3.592;2023-02-03T06:48:06;9.70;99.90
54168;DHT22;40072;50.958;3.592;2023-02-03T06:50:32;9.80;99.90
54168;DHT22;40072;50.958;3.592;2023-02-03T06:52:58;9.70;99.90
54168;DHT22;40072;50.958;3.592;2023-02-03T06:55:23;9.80;99.90
54168;DHT22;40072;50.958;3.592;2023-02-03T06:57:49;9.80;99.90
54168;DHT22;40072;50.958;3.592;2023-02-03T07:00:17;9.80;99.90
54168;DHT22;40072;50.958;3.592;2023-02-03T07:02:43;9.80;99.90
54168;DHT22;40072;50.958;3.592;2023-02-03T07:05:08;9.80;99.90
54168;DHT22;40072;50.958;3.592;2023-02-03T07:07:34;9.80;99.90
54168;DHT22;40072;50.958;3.592;2023-02-03T07:10:00;9.80;99.90
54168;DHT22;40072;50.958;3.592;2023-02-03T07:12:27;9.80;99.90
54168;DHT22;40072;50.958;3.592;2023-02-03T07:14:52;9.90;99.90
54168;DHT22;40072;50.958;3.592;2023-02-03T07:17:19;9.70;99.90
54168;DHT22;40072;50.958;3.592;2023-02-03T07:19:44;9.70;99.90
54168;DHT22;40072;50.958;3.592;2023-02-03T07:22:10;9.70;99.90
54168;DHT22;40072;50.958;3.592;2023-02-03T07:24:36;9.70;99.90
54168;DHT22;40072;50.958;3.592;2023-02-03T07:27:02;9.60;99.90
54168;DHT22;40072;50.958;3.592;2023-02-03T07:29:28;9.60;99.90
54168;DHT22;40072;50.958;3.592;2023-02-03T07:31:53;9.70;99.90
54168;DHT22;40072;50.958;3.592;2023-02-03T07:34:19;9.70;99.90
54168;DHT22;40072;50.958;3.592;2023-02-03T07:36:44;9.60;99.90
54168;DHT22;40072;50.958;3.592;2023-02-03T07:39:10;9.60;99.90
54168;DHT22;40072;50.958;3.592;2023-02-03T07:41:36;9.60;99.90
54168;DHT22;40072;50.958;3.592;2023-02-03T07:44:02;9.50;99.90
54168;DHT22;40072;50.958;3.592;2023-02-03T07:46:27;9.50;99.90
54168;DHT22;40072;50.958;3.592;2023-02-03T07:48:53;9.60;99.90
54168;DHT22;40072;50.958;3.592;2023-02-03T07:51:19;9.70;99.90
54168;DHT22;40072;50.958;3.592;2023-02-03T07:53:45;9.70;99.90
54168;DHT22;40072;50.958;3.592;2023-02-03T07:56:11;9.70;99.90
54168;DHT22;40072;50.958;3.592;2023-02-03T07:58:37;9.80;99.90
54168;DHT22;40072;50.958;3.592;2023-02-03T08:01:10;9.80;99.90
54168;DHT22;40072;50.958;3.592;2023-02-03T08:03:36;9.80;99.90
54168;DHT22;40072;50.958;3.592;2023-02-03T08:06:02;9.80;99.90
54168;DHT22;40072;50.958;3.592;2023-02-03T08:08:27;9.90;99.90
54168;DHT22;40072;50.958;3.592;2023-02-03T08:10:56;9.80;99.90
54168;DHT22;40072;50.958;3.592;2023-02-03T08:13:22;9.80;99.90
54168;DHT22;40072;50.958;3.592;2023-02-03T08:15:47;9.80;99.90
54168;DHT22;40072;50.958;3.592;2023-02-03T08:18:13;9.80;99.90
54168;DHT22;40072;50.958;3.592;2023-02-03T08:20:39;9.90;99.90
54168;DHT22;40072;50.958;3.592;2023-02-03T08:23:05;9.90;99.90
54168;DHT22;40072;50.958;3.592;2023-02-03T08:25:31;10.00;99.90
54168;DHT22;40072;50.958;3.592;2023-02-03T08:27:57;10.00;99.90
54168;DHT22;40072;50.958;3.592;2023-02-03T08:30:23;10.00;99.90
54168;DHT22;40072;50.958;3.592;2023-02-03T08:32:49;9.90;99.90
54168;DHT22;40072;50.958;3.592;2023-02-03T08:35:15;10.00;99.90
54168;DHT22;40072;50.958;3.592;2023-02-03T08:37:41;10.00;99.90
54168;DHT22;40072;50.958;3.592;2023-02-03T08:40:07;10.10;99.90
54168;DHT22;40072;50.958;3.592;2023-02-03T08:42:33;10.20;99.90
54168;DHT22;40072;50.958;3.592;2023-02-03T08:44:59;10.20;99.90
54168;DHT22;40072;50.958;3.592;2023-02-03T08:47:25;10.30;99.90
54168;DHT22;40072;50.958;3.592;2023-02-03T08:49:51;10.40;99.90
54168;DHT22;40072;50.958;3.592;2023-02-03T08:52:16;10.40;99.90
54168;DHT22;40072;50.958;3.592;2023-02-03T08:54:42;10.30;99.90
54168;DHT22;40072;50.958;3.592;2023-02-03T08:57:08;10.30;99.90
54168;DHT22;40072;50.958;3.592;2023-02-03T08:59:34;10.40;99.90
54168;DHT22;40072;50.958;3.592;2023-02-03T09:02:03;10.80;99.90
54168;DHT22;40072;50.958;3.592;2023-02-03T09:04:29;10.70;99.90
54168;DHT22;40072;50.958;3.592;2023-02-03T09:06:55;10.50;99.90
54168;DHT22;40072;50.958;3.592;2023-02-03T09:09:22;10.40;99.90
54168;DHT22;40072;50.958;3.592;2023-02-03T09:11:48;10.40;99.90
54168;DHT22;40072;50.958;3.592;2023-02-03T09:14:13;10.30;99.90
54168;DHT22;40072;50.958;3.592;2023-02-03T09:16:39;10.40;99.90
54168;DHT22;40072;50.958;3.592;2023-02-03T09:19:05;10.30;99.90
54168;DHT22;40072;50.958;3.592;2023-02-03T09:21:31;10.20;99.90
54168;DHT22;40072;50.958;3.592;2023-02-03T09:24:00;10.30;99.90
54168;DHT22;40072;50.958;3.592;2023-02-03T09:26:26;10.50;99.90
54168;DHT22;40072;50.958;3.592;2023-02-03T09:28:52;10.60;99.90
54168;DHT22;40072;50.958;3.592;2023-02-03T09:31:18;11.00;99.90
54168;DHT22;40072;50.958;3.592;2023-02-03T09:33:44;11.40;99.90
54168;DHT22;40072;50.958;3.592;2023-02-03T09:36:11;11.50;99.90
54168;DHT22;40072;50.958;3.592;2023-02-03T09:38:36;11.60;99.90
54168;DHT22;40072;50.958;3.592;2023-02-03T09:41:14;11.30;99.90
54168;DHT22;40072;50.958;3.592;2023-02-03T09:43:57;11.30;99.90
54168;DHT22;40072;50.958;3.592;2023-02-03T09:46:27;11.30;99.90
54168;DHT22;40072;50.958;3.592;2023-02-03T09:48:59;11.20;99.90
54168;DHT22;40072;50.958;3.592;2023-02-03T09:51:35;11.10;99.90
54168;DHT22;40072;50.958;3.592;2023-02-03T09:56:43;11.50;99.90
54168;DHT22;40072;50.958;3.592;2023-02-03T09:59:19;11.60;99.90
54168;DHT22;40072;50.958;3.592;2023-02-03T10:04:37;11.60;99.90
54168;DHT22;40072;50.958;3.592;2023-02-03T10:09:56;11.80;99.90
54168;DHT22;40072;50.958;3.592;2023-02-03T10:18:01;12.50;99.90
54168;DHT22;40072;50.958;3.592;2023-02-03T10:20:37;13.10;99.90
54168;DHT22;40072;50.958;3.592;2023-02-03T10:23:14;13.00;99.90
54168;DHT22;40072;50.958;3.592;2023-02-03T10:25:42;13.00;99.90
54168;DHT22;40072;50.958;3.592;2023-02-03T10:28:18;13.20;99.90
54168;DHT22;40072;50.958;3.592;2023-02-03T10:30:56;13.10;99.90
54168;DHT22;40072;50.958;3.592;2023-02-03T10:33:30;12.60;99.90
54168;DHT22;40072;50.958;3.592;2023-02-03T10:36:16;12.30;99.90
54168;DHT22;40072;50.958;3.592;2023-02-03T10:41:14;12.30;99.90
54168;DHT22;40072;50.958;3.592;2023-02-03T10:43:40;12.20;99.90
54168;DHT22;40072;50.958;3.592;2023-02-03T10:46:16;12.20;99.90
54168;DHT22;40072;50.958;3.592;2023-02-03T10:48:43;12.10;99.90
54168;DHT22;40072;50.958;3.592;2023-02-03T10:51:19;12.00;99.90
54168;DHT22;40072;50.958;3.592;2023-02-03T10:53:45;12.00;99.90
54168;DHT22;40072;50.958;3.592;2023-02-03T10:56:15;11.70;99.90
54168;DHT22;40072;50.958;3.592;2023-02-03T10:58:51;11.60;99.90
54168;DHT22;40072;50.958;3.592;2023-02-03T11:01:20;11.50;99.90
54168;DHT22;40072;50.958;3.592;2023-02-03T11:06:20;11.50;99.90
54168;DHT22;40072;50.958;3.592;2023-02-03T11:08:47;11.50;99.90
54168;DHT22;40072;50.958;3.592;2023-02-03T11:13:45;11.80;99.90
54168;DHT22;40072;50.958;3.592;2023-02-03T11:16:17;11.60;99.90
54168;DHT22;40072;50.958;3.592;2023-02-03T11:21:31;11.70;99.90
54168;DHT22;40072;50.958;3.592;2023-02-03T11:26:40;11.70;99.90
54168;DHT22;40072;50.958;3.592;2023-02-03T11:29:18;11.70;99.90
54168;DHT22;40072;50.958;3.592;2023-02-03T11:31:52;11.70;99.90
54168;DHT22;40072;50.958;3.592;2023-02-03T11:34:22;11.70;99.90
54168;DHT22;40072;50.958;3.592;2023-02-03T11:36:50;11.70;99.90
54168;DHT22;40072;50.958;3.592;2023-02-03T11:39:24;11.60;99.90
54168;DHT22;40072;50.958;3.592;2023-02-03T11:41:50;11.60;99.90
54168;DHT22;40072;50.958;3.592;2023-02-03T11:46:43;11.60;99.90
54168;DHT22;40072;50.958;3.592;2023-02-03T11:49:33;11.70;99.90
54168;DHT22;40072;50.958;3.592;2023-02-03T11:55:05;11.60;99.90
54168;DHT22;40072;50.958;3.592;2023-02-03T11:57:53;11.50;99.90
54168;DHT22;40072;50.958;3.592;2023-02-03T12:05:42;11.50;99.90
54168;DHT22;40072;50.958;3.592;2023-02-03T12:08:23;11.60;99.90
54168;DHT22;40072;50.958;3.592;2023-02-03T12:11:15;11.70;99.90
54168;DHT22;40072;50.958;3.592;2023-02-03T12:16:50;11.90;99.90
54168;DHT22;40072;50.958;3.592;2023-02-03T12:24:58;12.00;99.90
54168;DHT22;40072;50.958;3.592;2023-02-03T12:30:21;12.00;99.90
54168;DHT22;40072;50.958;3.592;2023-02-03T12:32:53;12.20;99.90
54168;DHT22;40072;50.958;3.592;2023-02-03T12:35:29;12.20;99.90
54168;DHT22;40072;50.958;3.592;2023-02-03T12:38:30;12.10;99.90
54168;DHT22;40072;50.958;3.592;2023-02-03T12:41:00;11.90;99.90
54168;DHT22;40072;50.958;3.592;2023-02-03T12:43:33;12.00;99.90
54168;DHT22;40072;50.958;3.592;2023-02-03T12:48:58;12.20;99.90
54168;DHT22;40072;50.958;3.592;2023-02-03T12:54:21;12.20;99.90
54168;DHT22;40072;50.958;3.592;2023-02-03T12:56:50;12.10;99.90
54168;DHT22;40072;50.958;3.592;2023-02-03T12:59:22;12.20;99.90
54168;DHT22;40072;50.958;3.592;2023-02-03T13:01:54;12.20;99.90
54168;DHT22;40072;50.958;3.592;2023-02-03T13:04:40;12.20;99.90
54168;DHT22;40072;50.958;3.592;2023-02-03T13:07:27;12.30;99.90
54168;DHT22;40072;50.958;3.592;2023-02-03T13:12:46;12.20;99.90
54168;DHT22;40072;50.958;3.592;2023-02-03T13:15:34;12.30;99.90
54168;DHT22;40072;50.958;3.592;2023-02-03T13:20:35;12.70;99.90
54168;DHT22;40072;50.958;3.592;2023-02-03T13:23:06;12.50;99.90
54168;DHT22;40072;50.958;3.592;2023-02-03T13:41:52;13.10;99.90
54168;DHT22;40072;50.958;3.592;2023-02-03T13:44:24;13.20;99.90
54168;DHT22;40072;50.958;3.592;2023-02-03T13:46:53;13.20;99.90
54168;DHT22;40072;50.958;3.592;2023-02-03T13:49:27;13.00;99.90
54168;DHT22;40072;50.958;3.592;2023-02-03T13:51:54;12.90;99.90
54168;DHT22;40072;50.958;3.592;2023-02-03T13:54:36;12.70;99.90
54168;DHT22;40072;50.958;3.592;2023-02-03T13:57:15;12.60;99.90
54168;DHT22;40072;50.958;3.592;2023-02-03T13:59:45;12.60;99.90
54168;DHT22;40072;50.958;3.592;2023-02-03T14:04:56;12.70;99.90
54168;DHT22;40072;50.958;3.592;2023-02-03T14:12:57;12.70;99.90
54168;DHT22;40072;50.958;3.592;2023-02-03T14:15:28;12.60;99.90
54168;DHT22;40072;50.958;3.592;2023-02-03T14:18:29;12.60;99.90
54168;DHT22;40072;50.958;3.592;2023-02-03T14:20:47;12.70;99.90
54168;DHT22;40072;50.958;3.592;2023-02-03T14:23:20;12.70;99.90
54168;DHT22;40072;50.958;3.592;2023-02-03T14:25:51;12.60;99.90
54168;DHT22;40072;50.958;3.592;2023-02-03T14:28:24;12.70;99.90
54168;DHT22;40072;50.958;3.592;2023-02-03T14:33:56;12.70;99.90
54168;DHT22;40072;50.958;3.592;2023-02-03T14:38:52;12.50;99.90
54168;DHT22;40072;50.958;3.592;2023-02-03T14:41:33;12.40;99.90
54168;DHT22;40072;50.958;3.592;2023-02-03T14:44:35;12.50;99.90
54168;DHT22;40072;50.958;3.592;2023-02-03T14:56:20;12.50;99.90
54168;DHT22;40072;50.958;3.592;2023-02-03T14:58:52;12.30;99.90
54168;DHT22;40072;50.958;3.592;2023-02-03T15:04:21;12.30;99.90
54168;DHT22;40072;50.958;3.592;2023-02-03T15:06:50;12.40;99.90
54168;DHT22;40072;50.958;3.592;2023-02-03T15:09:38;12.40;99.90
54168;DHT22;40072;50.958;3.592;2023-02-03T15:12:26;12.40;99.90
54168;DHT22;40072;50.958;3.592;2023-02-03T15:14:52;12.40;99.90
54168;DHT22;40072;50.958;3.592;2023-02-03T15:17:27;12.30;99.90
54168;DHT22;40072;50.958;3.592;2023-02-03T15:19:55;12.30;99.90
54168;DHT22;40072;50.958;3.592;2023-02-03T15:22:23;12.30;99.90
54168;DHT22;40072;50.958;3.592;2023-02-03T15:24:52;12.10;99.90
54168;DHT22;40072;50.958;3.592;2023-02-03T15:27:26;12.20;99.90
54168;DHT22;40072;50.958;3.592;2023-02-03T15:29:53;12.10;99.90
54168;DHT22;40072;50.958;3.592;2023-02-03T15:34:52;12.10;99.90
54168;DHT22;40072;50.958;3.592;2023-02-03T15:37:31;12.00;99.90
54168;DHT22;40072;50.958;3.592;2023-02-03T15:45:38;11.90;99.90
54168;DHT22;40072;50.958;3.592;2023-02-03T15:53:31;11.80;99.90
54168;DHT22;40072;50.958;3.592;2023-02-03T15:56:00;11.80;99.90
54168;DHT22;40072;50.958;3.592;2023-02-03T15:58:38;11.80;99.90
54168;DHT22;40072;50.958;3.592;2023-02-03T16:01:08;11.70;99.90
54168;DHT22;40072;50.958;3.592;2023-02-03T16:03:42;11.70;99.90
54168;DHT22;40072;50.958;3.592;2023-02-03T16:06:30;11.60;99.90
54168;DHT22;40072;50.958;3.592;2023-02-03T16:09:00;11.40;99.90
54168;DHT22;40072;50.958;3.592;2023-02-03T16:11:31;11.40;99.90
54168;DHT22;40072;50.958;3.592;2023-02-03T16:14:01;11.40;99.90
54168;DHT22;40072;50.958;3.592;2023-02-03T16:16:35;11.60;99.90
54168;DHT22;40072;50.958;3.592;2023-02-03T16:19:12;11.50;99.90
54168;DHT22;40072;50.958;3.592;2023-02-03T16:21:52;11.40;99.90
54168;DHT22;40072;50.958;3.592;2023-02-03T16:24:41;11.40;99.90
54168;DHT22;40072;50.958;3.592;2023-02-03T16:29:52;11.40;99.90
54168;DHT22;40072;50.958;3.592;2023-02-03T16:32:38;11.30;99.90
54168;DHT22;40072;50.958;3.592;2023-02-03T16:35:23;11.10;99.90
54168;DHT22;40072;50.958;3.592;2023-02-03T16:38:14;11.10;99.90
54168;DHT22;40072;50.958;3.592;2023-02-03T16:40:59;11.20;99.90
54168;DHT22;40072;50.958;3.592;2023-02-03T16:43:44;11.10;99.90
54168;DHT22;40072;50.958;3.592;2023-02-03T16:46:28;11.10;99.90
54168;DHT22;40072;50.958;3.592;2023-02-03T16:49:13;11.00;99.90
54168;DHT22;40072;50.958;3.592;2023-02-03T16:51:57;11.10;99.90
54168;DHT22;40072;50.958;3.592;2023-02-03T16:54:23;11.00;99.90
54168;DHT22;40072;50.958;3.592;2023-02-03T16:56:49;10.80;99.90
54168;DHT22;40072;50.958;3.592;2023-02-03T16:59:16;10.70;99.90
54168;DHT22;40072;50.958;3.592;2023-02-03T17:01:42;10.50;99.90
54168;DHT22;40072;50.958;3.592;2023-02-03T17:04:09;10.50;99.90
54168;DHT22;40072;50.958;3.592;2023-02-03T17:06:39;10.50;99.90
54168;DHT22;40072;50.958;3.592;2023-02-03T17:09:05;10.50;99.90
54168;DHT22;40072;50.958;3.592;2023-02-03T17:11:31;10.50;99.90
54168;DHT22;40072;50.958;3.592;2023-02-03T17:13:57;10.50;99.90
54168;DHT22;40072;50.958;3.592;2023-02-03T17:16:24;10.30;99.90
54168;DHT22;40072;50.958;3.592;2023-02-03T17:18:51;10.30;99.90
54168;DHT22;40072;50.958;3.592;2023-02-03T17:21:25;10.40;99.90
54168;DHT22;40072;50.958;3.592;2023-02-03T17:23:51;10.50;99.90
54168;DHT22;40072;50.958;3.592;2023-02-03T17:26:17;10.60;99.90
54168;DHT22;40072;50.958;3.592;2023-02-03T17:28:43;10.60;99.90
54168;DHT22;40072;50.958;3.592;2023-02-03T17:31:17;10.60;99.90
54168;DHT22;40072;50.958;3.592;2023-02-03T17:33:44;10.70;99.90
54168;DHT22;40072;50.958;3.592;2023-02-03T17:36:15;10.80;99.90
54168;DHT22;40072;50.958;3.592;2023-02-03T17:38:45;10.90;99.90
54168;DHT22;40072;50.958;3.592;2023-02-03T17:41:18;10.90;99.90
54168;DHT22;40072;50.958;3.592;2023-02-03T17:43:45;10.80;99.90
54168;DHT22;40072;50.958;3.592;2023-02-03T17:46:13;10.60;99.90
54168;DHT22;40072;50.958;3.592;2023-02-03T17:48:39;10.60;99.90
54168;DHT22;40072;50.958;3.592;2023-02-03T17:51:13;10.60;99.90
54168;DHT22;40072;50.958;3.592;2023-02-03T17:53:40;10.50;99.90
54168;DHT22;40072;50.958;3.592;2023-02-03T17:56:11;10.40;99.90
54168;DHT22;40072;50.958;3.592;2023-02-03T17:58:38;10.40;99.90
54168;DHT22;40072;50.958;3.592;2023-02-03T18:01:12;10.50;99.90
54168;DHT22;40072;50.958;3.592;2023-02-03T18:03:44;10.60;99.90
54168;DHT22;40072;50.958;3.592;2023-02-03T18:06:11;10.60;99.90
54168;DHT22;40072;50.958;3.592;2023-02-03T18:08:38;10.70;99.90
54168;DHT22;40072;50.958;3.592;2023-02-03T18:11:04;10.60;99.90
54168;DHT22;40072;50.958;3.592;2023-02-03T18:13:30;10.50;99.90
54168;DHT22;40072;50.958;3.592;2023-02-03T18:16:04;10.50;99.90